Nearby METAR Reports

 

KALB - Albany, New York, USA
Distance from station: E 47mi, 75km
Updated: Sat, 28-May-2022 8:51pm EDT
Partly cloudy
Partly cloudy
 Wind from WNW
Wind: WNW 7 mph , 11 km/h
Temperature: 66°F , 19°C
Dew Point: 50°F , 10°C
Humidity: 56%
Barometer: 29.83 inHg , 1010.2 hPa
Clouds: Partly cloudy
Visibility: 10 miles , 16 km
Cloud details: Partly cloudy 6000 ft
Partly cloudy 25000 ft
2022/05/29 00:51 KALB 290051Z 29006KT 10SM SCT060 SCT250 19/10 A2983 RMK AO2 SLP102 T01940100
KSLK - Saranac Lake, New York, USA
Distance from station: N 110mi, 177km
Updated: Sat, 28-May-2022 8:51pm EDT
Clear
Clear
 Wind from calm
Wind: Calm
Temperature: 52°F , 11°C
Dew Point: 50°F , 10°C
Humidity: 94%
Barometer: 29.88 inHg , 1011.9 hPa
Clouds: Clear
Visibility: 10 miles , 16 km
2022/05/29 00:51 KSLK 290051Z AUTO 00000KT 10SM CLR 11/10 A2988 RMK AO2 SLP118 T01060100
 
KSYR - Syracuse, New York, USA
Distance from station: W 73mi, 117km
Updated: Sat, 28-May-2022 8:54pm EDT
Few Clouds
Few Clouds
 Wind from NW
Wind: NW 3 mph , 6 km/h
Temperature: 59°F , 15°C
Dew Point: 52°F , 11°C
Humidity: 77%
Barometer: 29.91 inHg , 1012.9 hPa
Clouds: Few Clouds
Visibility: 10 miles , 16 km
Cloud details: Few Clouds 8000 ft
Few Clouds 20000 ft
2022/05/29 00:54 KSYR 290054Z 32003KT 10SM FEW080 FEW200 15/11 A2991 RMK AO2 SLP126 T01500106
KBGM - Binghamton, New York, USA
Distance from station: SW 78mi, 126km
Updated: Sat, 28-May-2022 8:53pm EDT
Clear
Clear
 Wind from N
Wind: N 6 mph , 9 km/h
Temperature: 57°F , 14°C
Dew Point: 52°F , 11°C
Humidity: 82%
Barometer: 29.92 inHg , 1013.2 hPa
Clouds: Clear
Visibility: 10 miles , 16 km
2022/05/29 00:53 KBGM 290053Z 35005KT 10SM CLR 14/11 A2992 RMK AO2 SLP127 T01440111 $
 
KRME - Rome, New York, USA
Distance from station: WNW 43mi, 69km
Updated: Sat, 28-May-2022 8:53pm EDT
Few Clouds
Few Clouds
 Wind from NNW
Wind: NNW 6 mph , 9 km/h
Temperature: 59°F , 15°C
Dew Point: 52°F , 11°C
Humidity: 77%
Barometer: 29.92 inHg , 1013.2 hPa
Clouds: Few Clouds
Visibility: 10 miles , 16 km
Cloud details: Few Clouds 5500 ft
2022/05/29 00:53 KRME 290053Z 33005KT 10SM FEW055 15/11 A2992 RMK AO2 SLP128 T01500111
KJFK - New York, New York, USA
Distance from station: SSE 159mi, 256km
Updated: Sat, 28-May-2022 8:51pm EDT
Partly cloudy
Partly cloudy
 Wind from W
Wind: W 9 mph , 15 km/h
Temperature: 72°F , 22°C
Dew Point: 61°F , 16°C
Humidity: 69%
Barometer: 29.83 inHg , 1010.2 hPa
Clouds: Partly cloudy
Visibility: 10 miles , 16 km
Cloud details: Few Clouds 3800 ft
Partly cloudy 8000 ft
Partly cloudy 25000 ft
2022/05/29 00:51 KJFK 290051Z 28008KT 10SM FEW038 SCT080 SCT250 22/16 A2983 RMK AO2 SLP100 VCSH N T02220156
 
KROC - Rochester, New York, USA
Distance from station: W 150mi, 242km
Updated: Sat, 28-May-2022 8:54pm EDT
Partly cloudy
Partly cloudy
 Wind from W
Wind: W 3 mph , 6 km/h
Temperature: 61°F , 16°C
Dew Point: 52°F , 11°C
Humidity: 72%
Barometer: 29.92 inHg , 1013.2 hPa
Clouds: Partly cloudy
Visibility: 10 miles , 16 km
Cloud details: Few Clouds 3500 ft
Few Clouds 15000 ft
Partly cloudy 25000 ft
2022/05/29 00:54 KROC 290054Z 26003KT 10SM FEW035 FEW150 SCT250 16/11 A2992 RMK AO2 SLP135 T01610106
KART - Watertown, New York, USA
Distance from station: NNW 103mi, 166km
Updated: Sat, 28-May-2022 8:56pm EDT
Clear
Clear
 Wind from S
Wind: S 3 mph , 6 km/h
Temperature: 57°F , 14°C
Dew Point: 52°F , 11°C
Humidity: 82%
Barometer: 29.89 inHg , 1012.2 hPa
Clouds: Clear
Visibility: 10 miles , 16 km
2022/05/29 00:56 KART 290056Z AUTO 19003KT 10SM CLR 14/11 A2989 RMK AO2 SLP121 T01390106
 
KELM - Elmira-Corning, New York, USA
Distance from station: SSW 121mi, 195km
Updated: Sat, 28-May-2022 8:53pm EDT
Overcast
Overcast
 Wind from N
Wind: N 6 mph , 9 km/h
Temperature: 61°F , 16°C
Dew Point: 57°F , 14°C
Humidity: 88%
Barometer: 29.91 inHg , 1012.9 hPa
Clouds: Overcast
Visibility: 10 miles , 16 km
Cloud details: Partly cloudy 3700 ft
Overcast 6000 ft
2022/05/29 00:53 KELM 290053Z 01005KT 10SM SCT037 OVC060 16/14 A2991 RMK AO2 SLP127 T01610144
KJHW - Jamestown, New York, USA
Distance from station: SW 238mi, 383km
Updated: Sat, 28-May-2022 8:56pm EDT
Clear
Clear
 Wind from NW
Wind: NW 3 mph , 6 km/h
Temperature: 57°F , 14°C
Dew Point: 48°F , 9°C
Humidity: 72%
Barometer: 29.98 inHg , 1015.2 hPa
Clouds: Clear
Visibility: 10 miles , 16 km
2022/05/29 00:56 KJHW 290056Z AUTO 32003KT 10SM CLR 14/09 A2998 RMK AO2 SLP155 T01390094
 
KMSS - Massena, New York, USA
Distance from station: N 141mi, 232km
Updated: Sat, 28-May-2022 8:53pm EDT
Clear
Clear
 Wind from calm
Wind: Calm
Temperature: 57°F , 14°C
Dew Point: 54°F , 12°C
Humidity: 88%
Barometer: 29.86 inHg , 1011.2 hPa
Clouds: Clear
Visibility: 10 miles , 16 km
2022/05/29 00:53 KMSS 290053Z AUTO 00000KT 10SM CLR 14/12 A2986 RMK AO2 SLP112 T01440117
KBUF - Buffalo, New York, USA
Distance from station: W 204mi, 328km
Updated: Sat, 28-May-2022 8:54pm EDT
Partly cloudy
Partly cloudy
 Wind from SW
Wind: SW 9 mph , 15 km/h
Temperature: 57°F , 14°C
Dew Point: 54°F , 12°C
Humidity: 88%
Barometer: 29.94 inHg , 1013.9 hPa
Clouds: Partly cloudy
Visibility: 10 miles , 16 km
Cloud details: Few Clouds 20000 ft
Partly cloudy 25000 ft
2022/05/29 00:54 KBUF 290054Z 22008KT 10SM FEW200 SCT250 14/12 A2994 RMK AO2 SLP138 T01390117